Airfield :
LOGIN :

Register | Disclaimer

   EN    FR    IT 

 










Legend :    VFR   Marginal VFR   IFR   Intensive IFR   Very Intensive IFR
Visi :
Ceiling :
>= 8 km
>= 3000ft
5 to 8 km
1000 to 3000 ft
1500m to 5 km
500 to 1000 ft
800 to 1500m
200 to 500 ft
< 800m
< 200 ft
Symbols :   Thunderstorms  Fog  Heavy snow  Heavy precipitations  Wind > 20 kt
SIGMETs :     Misc.  Thunderstorms  Icing  Turbulence  Mountain Waves  Volcanic Ashes






- Airport Elevation : 289 ft


LFYR - Romorantin Pruniers

CURRENT METAR :
  • 272330Z AUTO 23007KT 200V270 9999 OVC006 11/10 Q1014

EXPIRED METARs :
  • 272300Z AUTO 22008KT 9999 OVC004 10/10 Q1015
  • 272230Z AUTO 21006KT 4200 -DZ BR OVC004 10/10 Q1015
  • 272200Z AUTO 22004KT 3200 DZ BR OVC004 10/10 Q1016
  • 272130Z AUTO 20005KT 7000 OVC004 10/10 Q1016
  • 272100Z AUTO 20004KT 5000 -RADZ BR OVC004/// ///TCU 10/10 Q1016
  • 272030Z AUTO 19005KT 9999 4200 -DZ OVC005 09/09 Q1016

Expired Forecast.



MET'MAP, your aeronautical weather chart ! - Copyright ORBIFLY December 2007 - Disclaimer

ORBIFLY MET'MAP TEAM :

Programming & Development : Alexandra Zaïnal
Concept & original design : Baudouin d'Aumeries
Assistance for programming : Marc-Olivier Méhu
Technical & hardware support : Manuel Goepfert

Contact : metmap@orbifly.com




SOURCES & CREDITS :

   NOAA